createdAt,value
2019-05-03T00:02:01.913Z,25.87
2019-05-03T00:07:06.468Z,23.47
2019-05-03T00:12:12.655Z,22.13
2019-05-03T00:17:17.694Z,15.67
2019-05-03T00:22:22.439Z,16.90
2019-05-03T00:27:27.177Z,16.30
2019-05-03T00:32:32.435Z,14.97
2019-05-03T00:37:38.614Z,17.97
2019-05-03T00:42:43.354Z,17.80
2019-05-03T00:47:48.200Z,15.93
2019-05-03T00:52:53.150Z,18.33
2019-05-03T00:57:57.888Z,16.00
2019-05-03T01:03:02.637Z,20.00
2019-05-03T01:08:07.375Z,16.20
2019-05-03T01:13:12.414Z,18.77
2019-05-03T01:18:18.911Z,18.73
2019-05-03T01:23:23.546Z,17.33
2019-05-03T01:28:28.291Z,16.37
2019-05-03T01:33:33.036Z,18.03
2019-05-03T01:38:37.780Z,17.63
2019-05-03T01:43:42.410Z,15.33
2019-05-03T01:48:54.216Z,17.90
2019-05-03T01:53:58.856Z,19.80
2019-05-03T01:59:03.498Z,16.10
2019-05-03T02:04:12.359Z,17.60
2019-05-03T02:09:16.987Z,14.67
2019-05-03T02:14:22.168Z,15.43
2019-05-03T02:19:26.989Z,36.07
2019-05-03T02:24:32.793Z,14.70
2019-05-03T02:29:37.701Z,16.67
2019-05-03T02:34:43.843Z,14.63
2019-05-03T02:39:53.153Z,41.23
2019-05-03T02:44:58.892Z,86.77
2019-05-03T02:50:06.206Z,33.57
2019-05-03T02:55:11.106Z,30.77
2019-05-03T03:00:18.054Z,29.03
2019-05-03T03:05:25.139Z,26.20
2019-05-03T03:10:30.287Z,26.87
2019-05-03T03:15:36.274Z,27.80
2019-05-03T03:20:44.898Z,22.20
2019-05-03T03:25:48.817Z,21.37
2019-05-03T03:31:17.995Z,22.33
2019-05-03T03:36:46.212Z,25.87
2019-05-03T03:41:29.455Z,24.43
2019-05-03T03:46:35.771Z,21.77
2019-05-03T03:51:40.693Z,24.50
2019-05-03T03:56:56.006Z,21.17
2019-05-03T04:01:54.948Z,21.20
2019-05-03T04:07:01.373Z,22.23
2019-05-03T04:12:06.548Z,27.27
2019-05-03T04:17:28.088Z,23.00
2019-05-03T04:22:32.804Z,22.50
2019-05-03T04:27:38.594Z,24.73
2019-05-03T04:32:45.479Z,26.47
2019-05-03T04:37:50.786Z,31.97
2019-05-03T04:42:55.711Z,31.77
2019-05-03T04:48:00.719Z,29.80
2019-05-03T04:53:05.762Z,25.73
2019-05-03T04:58:10.725Z,22.80
2019-05-03T05:03:15.457Z,26.17
2019-05-03T05:08:21.739Z,27.43
2019-05-03T05:13:26.359Z,24.20
2019-05-03T05:18:35.661Z,29.30
2019-05-03T05:23:42.004Z,28.77
2019-05-03T05:28:51.161Z,29.47
2019-05-03T05:33:57.546Z,40.40
2019-05-03T05:39:02.388Z,33.23
2019-05-03T05:44:08.883Z,30.67
2019-05-03T05:49:15.460Z,35.93
2019-05-03T05:54:20.199Z,46.40
2019-05-03T05:59:26.447Z,62.67
2019-05-03T06:04:31.225Z,85.20
2019-05-03T06:09:38.972Z,80.43
2019-05-03T06:14:45.396Z,72.83
2019-05-03T06:19:55.082Z,46.63
2019-05-03T06:25:07.412Z,34.97
2019-05-03T06:30:14.928Z,26.73
2019-05-03T06:35:19.674Z,25.23
2019-05-03T06:40:25.906Z,23.23
2019-05-03T06:45:30.673Z,25.03
2019-05-03T06:50:36.893Z,28.20
2019-05-03T06:55:46.885Z,25.07
2019-05-03T07:01:00.359Z,25.73
2019-05-03T07:06:18.630Z,20.93
2019-05-03T07:11:24.763Z,29.00
2019-05-03T07:16:30.876Z,22.10
2019-05-03T07:21:35.729Z,23.63
2019-05-03T07:26:40.571Z,21.13
2019-05-03T07:31:45.337Z,19.50
2019-05-03T07:36:50.266Z,15.00
2019-05-03T07:41:55.166Z,14.40
2019-05-03T07:46:59.959Z,10.30
2019-05-03T07:52:05.853Z,8.70
2019-05-03T07:57:30.961Z,12.30
2019-05-03T08:02:36.031Z,8.70
2019-05-03T08:07:43.920Z,11.10
2019-05-03T08:12:48.151Z,8.40
2019-05-03T08:17:52.735Z,8.33
2019-05-03T08:22:57.735Z,7.90
2019-05-03T08:28:02.364Z,6.30
2019-05-03T08:33:17.670Z,10.60
2019-05-03T08:38:22.625Z,7.00
2019-05-03T08:43:27.363Z,7.03
2019-05-03T08:48:31.994Z,7.07
2019-05-03T08:53:36.865Z,8.03
2019-05-03T08:58:41.491Z,7.13
2019-05-03T09:03:46.236Z,6.80
2019-05-03T09:08:54.355Z,4.70
2019-05-03T09:14:01.457Z,6.70
2019-05-03T09:19:06.098Z,10.00
2019-05-03T09:24:10.848Z,4.83
2019-05-03T09:29:15.504Z,11.10
2019-05-03T09:34:20.233Z,7.33
2019-05-03T09:39:25.003Z,5.87
2019-05-03T09:44:29.835Z,7.37
2019-05-03T09:49:35.492Z,6.40
2019-05-03T09:54:46.477Z,6.07
2019-05-03T09:59:57.094Z,11.47
2019-05-03T10:04:57.944Z,6.13
2019-05-03T10:10:02.759Z,5.37
2019-05-03T10:15:07.645Z,5.47
2019-05-03T10:20:15.355Z,10.87
2019-05-03T10:25:20.471Z,16.33
2019-05-03T10:30:26.916Z,3.57
2019-05-03T10:35:31.704Z,6.83
2019-05-03T10:40:38.092Z,5.50
2019-05-03T10:45:44.872Z,4.70
2019-05-03T10:50:51.019Z,4.50
2019-05-03T10:56:14.789Z,3.93
2019-05-03T11:01:21.533Z,3.90
2019-05-03T11:06:26.382Z,4.63
2019-05-03T11:11:31.015Z,4.70
2019-05-03T11:16:37.336Z,4.30
2019-05-03T11:21:42.076Z,4.80
2019-05-03T11:26:50.759Z,3.60
2019-05-03T11:31:59.941Z,5.13
2019-05-03T11:37:09.808Z,7.53
2019-05-03T11:42:15.299Z,7.70
2019-05-03T11:47:20.818Z,6.33
2019-05-03T11:52:25.987Z,4.10
2019-05-03T11:57:30.750Z,3.90
2019-05-03T12:02:37.114Z,4.87
2019-05-03T12:07:42.066Z,4.43
2019-05-03T12:12:48.436Z,4.70
2019-05-03T12:17:59.501Z,6.60
2019-05-03T12:23:06.067Z,4.43
2019-05-03T12:28:11.858Z,6.07
2019-05-03T12:33:18.675Z,4.47
2019-05-03T12:38:25.381Z,5.60
2019-05-03T12:43:29.823Z,4.73
2019-05-03T12:48:36.189Z,3.10
2019-05-03T12:59:58.869Z,5.03
2019-05-03T13:05:04.874Z,4.20
2019-05-03T13:10:10.137Z,5.13
2019-05-03T13:15:16.704Z,2.90
2019-05-03T13:20:22.225Z,3.50
2019-05-03T13:25:28.546Z,5.17
2019-05-03T13:30:34.539Z,4.70
2019-05-03T13:35:39.463Z,3.43
2019-05-03T13:40:45.323Z,3.77
2019-05-03T13:45:51.130Z,3.13
2019-05-03T13:50:55.863Z,3.17
2019-05-03T13:56:00.459Z,3.13
2019-05-03T14:01:05.629Z,5.37
2019-05-03T14:06:10.708Z,3.97
2019-05-03T14:11:15.714Z,3.43
2019-05-03T14:16:20.500Z,6.90
2019-05-03T14:21:34.578Z,16.90
2019-05-03T14:26:40.821Z,10.37
2019-05-03T14:31:45.856Z,8.00
2019-05-03T14:36:50.635Z,4.80
2019-05-03T14:41:55.636Z,8.17
2019-05-03T14:47:00.248Z,7.97
2019-05-03T14:52:05.660Z,6.97
2019-05-03T14:57:16.716Z,5.83
2019-05-03T15:02:40.256Z,4.27
2019-05-03T15:07:35.154Z,4.67
2019-05-03T15:12:41.149Z,6.83
2019-05-03T15:17:45.931Z,7.90
2019-05-03T15:22:50.642Z,7.30
2019-05-03T15:27:55.512Z,8.03
2019-05-03T15:33:00.994Z,4.67
2019-05-03T15:38:05.923Z,5.90
2019-05-03T15:43:15.654Z,5.03
2019-05-03T15:48:24.919Z,7.10
2019-05-03T15:53:29.555Z,11.77
2019-05-03T15:58:34.300Z,18.93
2019-05-03T16:03:39.449Z,7.20
2019-05-03T16:08:44.600Z,10.70
2019-05-03T16:13:49.388Z,14.57
2019-05-03T16:18:54.209Z,69.27
2019-05-03T16:23:59.921Z,8.97
2019-05-03T16:29:15.042Z,18.47
2019-05-03T16:34:21.116Z,6.20
2019-05-03T16:39:27.500Z,24.03
2019-05-03T16:44:32.254Z,9.30
2019-05-03T16:49:37.091Z,10.50
2019-05-03T16:54:42.459Z,10.13
2019-05-03T16:59:47.195Z,5.57
2019-05-03T17:04:55.662Z,9.70
2019-05-03T17:10:09.168Z,11.97
2019-05-03T17:15:14.440Z,10.13
2019-05-03T17:20:19.616Z,20.80
2019-05-03T17:25:24.580Z,22.60
2019-05-03T17:30:34.093Z,19.27
2019-05-03T17:35:36.130Z,24.97
2019-05-03T17:40:45.726Z,17.93
2019-05-03T17:45:55.310Z,16.67
2019-05-03T17:51:00.136Z,11.97
2019-05-03T17:56:21.669Z,17.37
2019-05-03T18:01:44.577Z,13.17
2019-05-03T18:06:51.025Z,8.83
2019-05-03T18:12:00.594Z,11.93
2019-05-03T18:17:06.174Z,12.20
2019-05-03T18:22:15.158Z,12.93
2019-05-03T18:27:22.655Z,9.63
2019-05-03T18:32:31.149Z,8.33
2019-05-03T18:37:39.079Z,14.53
2019-05-03T18:42:55.571Z,8.60
2019-05-03T18:48:04.659Z,12.43
2019-05-03T18:53:12.388Z,12.83
2019-05-03T18:58:20.731Z,9.90
2019-05-03T19:03:27.950Z,13.90
2019-05-03T19:08:36.972Z,11.80
2019-05-03T19:14:04.692Z,19.80
2019-05-03T19:19:15.278Z,36.47
2019-05-03T19:24:20.728Z,17.73
2019-05-03T19:29:26.980Z,18.27
2019-05-03T19:34:44.393Z,13.23
2019-05-03T19:39:37.930Z,15.60
2019-05-03T19:44:42.863Z,18.30
2019-05-03T19:49:47.608Z,17.40
2019-05-03T19:54:52.789Z,12.67
2019-05-03T20:00:00.208Z,12.83
2019-05-03T20:05:20.582Z,11.97
2019-05-03T20:10:29.546Z,8.10
2019-05-03T20:15:38.587Z,8.53
2019-05-03T20:20:48.602Z,10.37
2019-05-03T20:25:56.076Z,11.23
2019-05-03T20:31:01.091Z,16.50
2019-05-03T20:36:05.943Z,28.50
2019-05-03T20:41:10.683Z,18.13
2019-05-03T20:46:18.908Z,19.03
2019-05-03T20:51:25.206Z,24.33
2019-05-03T20:57:01.571Z,13.23
2019-05-03T21:02:06.420Z,54.87
2019-05-03T21:07:11.531Z,54.80
2019-05-03T21:12:17.012Z,38.50
2019-05-03T21:17:40.182Z,15.10
2019-05-03T21:22:46.305Z,15.27
2019-05-03T21:27:52.166Z,36.90
2019-05-03T21:32:57.103Z,23.13
2019-05-03T21:38:02.384Z,21.87
2019-05-03T21:43:07.497Z,18.27
2019-05-03T21:48:14.601Z,21.03
2019-05-03T21:53:19.594Z,10.73
2019-05-03T21:58:26.855Z,14.10
2019-05-03T22:03:31.900Z,11.00
2019-05-03T22:08:36.475Z,14.83
2019-05-03T22:13:41.917Z,13.10
2019-05-03T22:18:47.772Z,14.57
2019-05-03T22:24:10.574Z,16.83
2019-05-03T22:29:17.180Z,11.60
2019-05-03T22:34:22.077Z,9.30
2019-05-03T22:39:26.820Z,26.53
2019-05-03T22:44:31.667Z,30.83
2019-05-03T22:49:37.304Z,33.00
2019-05-03T22:54:42.383Z,18.07
2019-05-03T22:59:48.369Z,19.13
2019-05-03T23:04:55.257Z,19.90
2019-05-03T23:10:00.208Z,37.07
2019-05-03T23:15:08.014Z,22.23
2019-05-03T23:20:27.702Z,11.80
2019-05-03T23:25:32.657Z,12.33
2019-05-03T23:30:38.120Z,25.57
2019-05-03T23:35:44.388Z,11.00
2019-05-03T23:40:49.765Z,21.70
2019-05-03T23:45:55.284Z,16.40
2019-05-03T23:51:00.470Z,22.57
2019-05-03T23:56:20.672Z,20.87
